sensor_id;sensor_type;location;lat;lon;timestamp;temperature;humidity
5476;DHT22;2760;50.000;9.194;2023-08-30T00:01:12;15.40;99.90
5476;DHT22;2760;50.000;9.194;2023-08-30T00:03:39;15.10;99.90
5476;DHT22;2760;50.000;9.194;2023-08-30T00:06:07;14.70;99.90
5476;DHT22;2760;50.000;9.194;2023-08-30T00:08:35;16.10;99.90
5476;DHT22;2760;50.000;9.194;2023-08-30T00:11:02;14.70;99.90
5476;DHT22;2760;50.000;9.194;2023-08-30T00:13:30;14.80;99.90
5476;DHT22;2760;50.000;9.194;2023-08-30T00:15:58;14.70;99.90
5476;DHT22;2760;50.000;9.194;2023-08-30T00:18:27;14.80;99.90
5476;DHT22;2760;50.000;9.194;2023-08-30T00:20:55;14.80;99.90
5476;DHT22;2760;50.000;9.194;2023-08-30T00:23:22;14.70;99.90
5476;DHT22;2760;50.000;9.194;2023-08-30T00:25:49;14.70;99.90
5476;DHT22;2760;50.000;9.194;2023-08-30T00:28:16;14.60;99.90
5476;DHT22;2760;50.000;9.194;2023-08-30T00:30:43;16.20;99.90
5476;DHT22;2760;50.000;9.194;2023-08-30T00:33:10;16.40;99.90
5476;DHT22;2760;50.000;9.194;2023-08-30T00:35:39;16.00;99.90
5476;DHT22;2760;50.000;9.194;2023-08-30T00:38:06;14.50;99.90
5476;DHT22;2760;50.000;9.194;2023-08-30T00:40:38;16.10;99.90
5476;DHT22;2760;50.000;9.194;2023-08-30T00:43:06;14.40;99.90
5476;DHT22;2760;50.000;9.194;2023-08-30T00:45:33;14.80;99.90
5476;DHT22;2760;50.000;9.194;2023-08-30T00:48:01;14.50;99.90
5476;DHT22;2760;50.000;9.194;2023-08-30T00:50:30;14.50;99.90
5476;DHT22;2760;50.000;9.194;2023-08-30T00:52:58;14.50;99.90
5476;DHT22;2760;50.000;9.194;2023-08-30T00:55:28;14.70;99.90
5476;DHT22;2760;50.000;9.194;2023-08-30T00:57:55;15.80;99.90
5476;DHT22;2760;50.000;9.194;2023-08-30T01:00:22;14.40;99.90
5476;DHT22;2760;50.000;9.194;2023-08-30T01:02:49;14.50;99.90
5476;DHT22;2760;50.000;9.194;2023-08-30T01:05:17;14.50;99.90
5476;DHT22;2760;50.000;9.194;2023-08-30T01:07:44;14.50;99.90
5476;DHT22;2760;50.000;9.194;2023-08-30T01:10:14;14.60;99.90
5476;DHT22;2760;50.000;9.194;2023-08-30T01:12:49;14.40;99.90
5476;DHT22;2760;50.000;9.194;2023-08-30T01:15:20;14.40;99.90
5476;DHT22;2760;50.000;9.194;2023-08-30T01:17:48;15.40;99.90
5476;DHT22;2760;50.000;9.194;2023-08-30T01:20:17;14.30;99.90
5476;DHT22;2760;50.000;9.194;2023-08-30T01:22:54;14.50;99.90
5476;DHT22;2760;50.000;9.194;2023-08-30T01:25:32;15.10;99.90
5476;DHT22;2760;50.000;9.194;2023-08-30T01:28:04;15.70;99.90
5476;DHT22;2760;50.000;9.194;2023-08-30T01:30:34;14.40;99.90
5476;DHT22;2760;50.000;9.194;2023-08-30T01:33:03;14.30;99.90
5476;DHT22;2760;50.000;9.194;2023-08-30T01:35:32;14.30;99.90
5476;DHT22;2760;50.000;9.194;2023-08-30T01:38:02;14.30;99.90
5476;DHT22;2760;50.000;9.194;2023-08-30T01:40:33;14.40;99.90
5476;DHT22;2760;50.000;9.194;2023-08-30T01:43:04;14.60;99.90
5476;DHT22;2760;50.000;9.194;2023-08-30T01:45:38;14.40;99.90
5476;DHT22;2760;50.000;9.194;2023-08-30T01:48:09;14.40;99.90
5476;DHT22;2760;50.000;9.194;2023-08-30T01:50:38;15.70;99.90
5476;DHT22;2760;50.000;9.194;2023-08-30T01:53:06;15.10;99.90
5476;DHT22;2760;50.000;9.194;2023-08-30T01:55:35;15.00;99.90
5476;DHT22;2760;50.000;9.194;2023-08-30T01:58:06;14.30;99.90
5476;DHT22;2760;50.000;9.194;2023-08-30T02:00:34;16.60;99.90
5476;DHT22;2760;50.000;9.194;2023-08-30T02:03:08;14.20;99.90
5476;DHT22;2760;50.000;9.194;2023-08-30T02:05:38;14.20;99.90
5476;DHT22;2760;50.000;9.194;2023-08-30T02:08:14;14.10;99.90
5476;DHT22;2760;50.000;9.194;2023-08-30T02:10:51;14.10;99.90
5476;DHT22;2760;50.000;9.194;2023-08-30T02:13:25;14.00;99.90
5476;DHT22;2760;50.000;9.194;2023-08-30T02:15:54;14.10;99.90
5476;DHT22;2760;50.000;9.194;2023-08-30T02:18:22;14.00;99.90
5476;DHT22;2760;50.000;9.194;2023-08-30T02:20:53;14.40;99.90
5476;DHT22;2760;50.000;9.194;2023-08-30T02:23:23;12.20;99.90
5476;DHT22;2760;50.000;9.194;2023-08-30T02:25:51;13.80;99.90
5476;DHT22;2760;50.000;9.194;2023-08-30T02:28:20;13.80;99.90
5476;DHT22;2760;50.000;9.194;2023-08-30T02:30:47;13.90;99.90
5476;DHT22;2760;50.000;9.194;2023-08-30T02:33:16;15.60;99.90
5476;DHT22;2760;50.000;9.194;2023-08-30T02:35:43;15.20;99.90
5476;DHT22;2760;50.000;9.194;2023-08-30T02:38:11;13.80;99.90
5476;DHT22;2760;50.000;9.194;2023-08-30T02:40:38;13.60;99.90
5476;DHT22;2760;50.000;9.194;2023-08-30T02:43:05;15.40;99.90
5476;DHT22;2760;50.000;9.194;2023-08-30T02:45:33;13.80;99.90
5476;DHT22;2760;50.000;9.194;2023-08-30T02:48:00;13.60;99.90
5476;DHT22;2760;50.000;9.194;2023-08-30T02:50:27;11.60;99.90
5476;DHT22;2760;50.000;9.194;2023-08-30T02:52:54;13.60;99.90
5476;DHT22;2760;50.000;9.194;2023-08-30T02:55:22;15.60;99.90
5476;DHT22;2760;50.000;9.194;2023-08-30T02:57:49;12.50;99.90
5476;DHT22;2760;50.000;9.194;2023-08-30T03:00:16;13.70;99.90
5476;DHT22;2760;50.000;9.194;2023-08-30T03:02:48;13.70;99.90
5476;DHT22;2760;50.000;9.194;2023-08-30T03:05:15;15.30;99.90
5476;DHT22;2760;50.000;9.194;2023-08-30T03:07:42;13.70;99.90
5476;DHT22;2760;50.000;9.194;2023-08-30T03:10:11;13.60;99.90
5476;DHT22;2760;50.000;9.194;2023-08-30T03:12:38;13.60;99.90
5476;DHT22;2760;50.000;9.194;2023-08-30T03:15:06;13.60;99.90
5476;DHT22;2760;50.000;9.194;2023-08-30T03:17:34;13.60;99.90
5476;DHT22;2760;50.000;9.194;2023-08-30T03:20:04;14.50;99.90
5476;DHT22;2760;50.000;9.194;2023-08-30T03:22:31;13.50;99.90
5476;DHT22;2760;50.000;9.194;2023-08-30T03:24:59;13.40;99.90
5476;DHT22;2760;50.000;9.194;2023-08-30T03:27:28;14.30;99.90
5476;DHT22;2760;50.000;9.194;2023-08-30T03:29:55;13.50;99.90
5476;DHT22;2760;50.000;9.194;2023-08-30T03:32:22;13.50;99.90
5476;DHT22;2760;50.000;9.194;2023-08-30T03:34:49;13.60;99.90
5476;DHT22;2760;50.000;9.194;2023-08-30T03:37:19;14.70;99.90
5476;DHT22;2760;50.000;9.194;2023-08-30T03:39:46;13.60;99.90
5476;DHT22;2760;50.000;9.194;2023-08-30T03:42:13;13.80;99.90
5476;DHT22;2760;50.000;9.194;2023-08-30T03:44:40;13.50;99.90
5476;DHT22;2760;50.000;9.194;2023-08-30T03:47:07;15.40;99.90
5476;DHT22;2760;50.000;9.194;2023-08-30T03:49:35;13.60;99.90
5476;DHT22;2760;50.000;9.194;2023-08-30T03:52:02;15.10;99.90
5476;DHT22;2760;50.000;9.194;2023-08-30T03:54:31;13.60;99.90
5476;DHT22;2760;50.000;9.194;2023-08-30T03:56:59;13.70;99.90
5476;DHT22;2760;50.000;9.194;2023-08-30T03:59:26;12.80;99.90
5476;DHT22;2760;50.000;9.194;2023-08-30T04:01:54;15.10;99.90
5476;DHT22;2760;50.000;9.194;2023-08-30T04:04:21;15.90;99.90
5476;DHT22;2760;50.000;9.194;2023-08-30T04:06:48;13.60;99.90
5476;DHT22;2760;50.000;9.194;2023-08-30T04:09:15;13.50;99.90
5476;DHT22;2760;50.000;9.194;2023-08-30T04:11:44;13.90;99.90
5476;DHT22;2760;50.000;9.194;2023-08-30T04:14:11;11.80;99.90
5476;DHT22;2760;50.000;9.194;2023-08-30T04:16:38;13.60;99.90
5476;DHT22;2760;50.000;9.194;2023-08-30T04:19:07;14.20;99.90
5476;DHT22;2760;50.000;9.194;2023-08-30T04:21:34;13.60;99.90
5476;DHT22;2760;50.000;9.194;2023-08-30T04:24:01;14.10;99.90
5476;DHT22;2760;50.000;9.194;2023-08-30T04:26:29;13.60;99.90
5476;DHT22;2760;50.000;9.194;2023-08-30T04:28:58;15.20;99.90
5476;DHT22;2760;50.000;9.194;2023-08-30T04:31:25;15.10;99.90
5476;DHT22;2760;50.000;9.194;2023-08-30T04:33:52;13.70;99.90
5476;DHT22;2760;50.000;9.194;2023-08-30T04:36:21;15.30;99.90
5476;DHT22;2760;50.000;9.194;2023-08-30T04:38:48;13.20;99.90
5476;DHT22;2760;50.000;9.194;2023-08-30T04:41:18;13.20;99.90
5476;DHT22;2760;50.000;9.194;2023-08-30T04:43:46;15.10;99.90
5476;DHT22;2760;50.000;9.194;2023-08-30T04:46:15;15.30;99.90
5476;DHT22;2760;50.000;9.194;2023-08-30T04:48:42;13.70;99.90
5476;DHT22;2760;50.000;9.194;2023-08-30T04:51:09;13.70;99.90
5476;DHT22;2760;50.000;9.194;2023-08-30T04:53:36;15.90;99.90
5476;DHT22;2760;50.000;9.194;2023-08-30T04:56:10;14.30;99.90
5476;DHT22;2760;50.000;9.194;2023-08-30T04:58:37;13.80;99.90
5476;DHT22;2760;50.000;9.194;2023-08-30T05:01:07;13.90;99.90
5476;DHT22;2760;50.000;9.194;2023-08-30T05:03:38;14.30;99.90
5476;DHT22;2760;50.000;9.194;2023-08-30T05:06:08;11.70;99.90
5476;DHT22;2760;50.000;9.194;2023-08-30T05:08:35;14.00;99.90
5476;DHT22;2760;50.000;9.194;2023-08-30T05:11:02;14.00;99.90
5476;DHT22;2760;50.000;9.194;2023-08-30T05:13:29;14.00;99.90
5476;DHT22;2760;50.000;9.194;2023-08-30T05:15:58;14.40;99.90
5476;DHT22;2760;50.000;9.194;2023-08-30T05:18:25;14.10;99.90
5476;DHT22;2760;50.000;9.194;2023-08-30T05:20:54;15.40;99.90
5476;DHT22;2760;50.000;9.194;2023-08-30T05:23:21;16.00;99.90
5476;DHT22;2760;50.000;9.194;2023-08-30T05:25:49;14.10;99.90
5476;DHT22;2760;50.000;9.194;2023-08-30T05:28:17;14.70;99.90
5476;DHT22;2760;50.000;9.194;2023-08-30T05:30:44;14.20;99.90
5476;DHT22;2760;50.000;9.194;2023-08-30T05:33:26;14.90;99.90
5476;DHT22;2760;50.000;9.194;2023-08-30T05:36:14;15.00;99.90
5476;DHT22;2760;50.000;9.194;2023-08-30T05:39:00;14.40;99.90
5476;DHT22;2760;50.000;9.194;2023-08-30T05:41:33;14.20;99.90
5476;DHT22;2760;50.000;9.194;2023-08-30T05:44:00;14.10;99.90
5476;DHT22;2760;50.000;9.194;2023-08-30T05:46:28;14.10;99.90
5476;DHT22;2760;50.000;9.194;2023-08-30T05:48:56;15.30;99.90
5476;DHT22;2760;50.000;9.194;2023-08-30T05:51:24;14.90;99.90
5476;DHT22;2760;50.000;9.194;2023-08-30T05:53:51;15.70;99.90
5476;DHT22;2760;50.000;9.194;2023-08-30T05:56:18;15.70;99.90
5476;DHT22;2760;50.000;9.194;2023-08-30T05:58:45;14.30;99.90
5476;DHT22;2760;50.000;9.194;2023-08-30T06:01:14;14.30;99.90
5476;DHT22;2760;50.000;9.194;2023-08-30T06:03:41;14.40;99.90
5476;DHT22;2760;50.000;9.194;2023-08-30T06:06:08;14.40;99.90
5476;DHT22;2760;50.000;9.194;2023-08-30T06:08:36;14.30;99.90
5476;DHT22;2760;50.000;9.194;2023-08-30T06:11:03;14.30;99.90
5476;DHT22;2760;50.000;9.194;2023-08-30T06:13:30;14.30;99.90
5476;DHT22;2760;50.000;9.194;2023-08-30T06:15:57;14.30;99.90
5476;DHT22;2760;50.000;9.194;2023-08-30T06:18:29;14.40;99.90
5476;DHT22;2760;50.000;9.194;2023-08-30T06:20:56;14.40;99.90
5476;DHT22;2760;50.000;9.194;2023-08-30T06:23:23;14.50;99.90
5476;DHT22;2760;50.000;9.194;2023-08-30T06:25:55;14.50;99.90
5476;DHT22;2760;50.000;9.194;2023-08-30T06:28:22;14.50;99.90
5476;DHT22;2760;50.000;9.194;2023-08-30T06:30:53;14.40;99.90
5476;DHT22;2760;50.000;9.194;2023-08-30T06:33:20;15.60;99.90
5476;DHT22;2760;50.000;9.194;2023-08-30T06:35:48;16.00;99.90
5476;DHT22;2760;50.000;9.194;2023-08-30T06:38:16;14.50;99.90
5476;DHT22;2760;50.000;9.194;2023-08-30T06:40:44;14.60;99.90
5476;DHT22;2760;50.000;9.194;2023-08-30T06:43:13;14.60;99.90
5476;DHT22;2760;50.000;9.194;2023-08-30T06:45:40;15.40;99.90
5476;DHT22;2760;50.000;9.194;2023-08-30T06:48:07;15.70;99.90
5476;DHT22;2760;50.000;9.194;2023-08-30T06:50:34;14.70;99.90
5476;DHT22;2760;50.000;9.194;2023-08-30T06:53:02;16.60;99.90
5476;DHT22;2760;50.000;9.194;2023-08-30T06:55:29;14.90;99.90
5476;DHT22;2760;50.000;9.194;2023-08-30T06:57:57;14.90;99.90
5476;DHT22;2760;50.000;9.194;2023-08-30T07:00:25;14.90;99.90
5476;DHT22;2760;50.000;9.194;2023-08-30T07:02:52;15.20;99.90
5476;DHT22;2760;50.000;9.194;2023-08-30T07:05:19;15.20;99.90
5476;DHT22;2760;50.000;9.194;2023-08-30T07:07:46;15.40;99.90
5476;DHT22;2760;50.000;9.194;2023-08-30T07:10:13;15.80;99.90
5476;DHT22;2760;50.000;9.194;2023-08-30T07:12:40;15.70;99.90
5476;DHT22;2760;50.000;9.194;2023-08-30T07:15:08;15.80;99.90
5476;DHT22;2760;50.000;9.194;2023-08-30T07:17:38;15.90;99.90
5476;DHT22;2760;50.000;9.194;2023-08-30T07:20:09;15.80;99.90
5476;DHT22;2760;50.000;9.194;2023-08-30T07:22:36;14.40;99.90
5476;DHT22;2760;50.000;9.194;2023-08-30T07:25:03;16.00;99.90
5476;DHT22;2760;50.000;9.194;2023-08-30T07:27:31;16.30;99.90
5476;DHT22;2760;50.000;9.194;2023-08-30T07:29:58;16.30;99.90
5476;DHT22;2760;50.000;9.194;2023-08-30T07:32:25;16.40;99.90
5476;DHT22;2760;50.000;9.194;2023-08-30T07:34:54;16.60;99.90
5476;DHT22;2760;50.000;9.194;2023-08-30T07:37:21;16.70;99.90
5476;DHT22;2760;50.000;9.194;2023-08-30T07:39:48;17.10;99.90
5476;DHT22;2760;50.000;9.194;2023-08-30T07:42:17;17.10;99.90
5476;DHT22;2760;50.000;9.194;2023-08-30T07:44:44;17.20;99.90
5476;DHT22;2760;50.000;9.194;2023-08-30T07:47:11;17.30;99.90
5476;DHT22;2760;50.000;9.194;2023-08-30T07:49:39;17.50;99.90
5476;DHT22;2760;50.000;9.194;2023-08-30T07:52:07;16.80;99.90
5476;DHT22;2760;50.000;9.194;2023-08-30T07:54:37;17.60;99.90
5476;DHT22;2760;50.000;9.194;2023-08-30T07:57:05;17.80;99.90
5476;DHT22;2760;50.000;9.194;2023-08-30T07:59:33;18.10;99.90
5476;DHT22;2760;50.000;9.194;2023-08-30T08:02:00;18.10;99.90
5476;DHT22;2760;50.000;9.194;2023-08-30T08:04:28;18.20;99.90
5476;DHT22;2760;50.000;9.194;2023-08-30T08:06:55;18.20;99.90
5476;DHT22;2760;50.000;9.194;2023-08-30T08:09:25;18.40;99.90
5476;DHT22;2760;50.000;9.194;2023-08-30T08:11:52;18.50;99.90
5476;DHT22;2760;50.000;9.194;2023-08-30T08:14:19;18.90;99.90
5476;DHT22;2760;50.000;9.194;2023-08-30T08:16:46;19.00;99.90
5476;DHT22;2760;50.000;9.194;2023-08-30T08:19:14;19.10;99.90
5476;DHT22;2760;50.000;9.194;2023-08-30T08:21:41;19.00;99.90
5476;DHT22;2760;50.000;9.194;2023-08-30T08:24:08;19.30;99.90
5476;DHT22;2760;50.000;9.194;2023-08-30T08:26:36;19.20;99.90
5476;DHT22;2760;50.000;9.194;2023-08-30T08:29:03;19.30;99.90
5476;DHT22;2760;50.000;9.194;2023-08-30T08:31:31;19.50;99.90
5476;DHT22;2760;50.000;9.194;2023-08-30T08:34:15;19.50;99.90
5476;DHT22;2760;50.000;9.194;2023-08-30T08:36:42;19.60;99.90
5476;DHT22;2760;50.000;9.194;2023-08-30T08:39:09;19.80;99.90
5476;DHT22;2760;50.000;9.194;2023-08-30T08:41:41;20.60;99.90
5476;DHT22;2760;50.000;9.194;2023-08-30T08:44:09;20.00;99.90
5476;DHT22;2760;50.000;9.194;2023-08-30T08:46:37;19.80;99.90
5476;DHT22;2760;50.000;9.194;2023-08-30T08:49:11;20.00;99.90
5476;DHT22;2760;50.000;9.194;2023-08-30T08:51:39;20.30;99.90
5476;DHT22;2760;50.000;9.194;2023-08-30T08:54:09;20.50;99.90
5476;DHT22;2760;50.000;9.194;2023-08-30T08:56:40;19.70;99.90
5476;DHT22;2760;50.000;9.194;2023-08-30T08:59:08;20.60;99.90
5476;DHT22;2760;50.000;9.194;2023-08-30T09:01:35;20.20;99.90
5476;DHT22;2760;50.000;9.194;2023-08-30T09:04:05;20.30;99.90
5476;DHT22;2760;50.000;9.194;2023-08-30T09:06:36;20.70;99.90
5476;DHT22;2760;50.000;9.194;2023-08-30T09:09:04;19.00;99.90
5476;DHT22;2760;50.000;9.194;2023-08-30T09:11:32;20.90;99.90
5476;DHT22;2760;50.000;9.194;2023-08-30T09:14:04;21.10;99.90
5476;DHT22;2760;50.000;9.194;2023-08-30T09:16:34;20.70;99.90
5476;DHT22;2760;50.000;9.194;2023-08-30T09:19:02;21.00;99.90
5476;DHT22;2760;50.000;9.194;2023-08-30T09:21:30;21.30;99.90
5476;DHT22;2760;50.000;9.194;2023-08-30T09:23:58;21.20;99.90
5476;DHT22;2760;50.000;9.194;2023-08-30T09:26:26;21.10;99.90
5476;DHT22;2760;50.000;9.194;2023-08-30T09:28:54;20.70;99.90
5476;DHT22;2760;50.000;9.194;2023-08-30T09:31:24;20.80;99.90
5476;DHT22;2760;50.000;9.194;2023-08-30T09:33:58;21.20;99.90
5476;DHT22;2760;50.000;9.194;2023-08-30T09:36:34;21.50;99.90
5476;DHT22;2760;50.000;9.194;2023-08-30T09:39:07;21.80;99.90
5476;DHT22;2760;50.000;9.194;2023-08-30T09:41:36;21.80;99.90
5476;DHT22;2760;50.000;9.194;2023-08-30T09:44:07;22.10;99.90
5476;DHT22;2760;50.000;9.194;2023-08-30T09:46:42;22.20;99.90
5476;DHT22;2760;50.000;9.194;2023-08-30T09:49:09;22.20;99.90
5476;DHT22;2760;50.000;9.194;2023-08-30T09:51:39;22.10;99.90
5476;DHT22;2760;50.000;9.194;2023-08-30T09:54:14;22.40;99.90
5476;DHT22;2760;50.000;9.194;2023-08-30T09:56:42;22.60;99.90
5476;DHT22;2760;50.000;9.194;2023-08-30T09:59:10;21.30;99.90
5476;DHT22;2760;50.000;9.194;2023-08-30T10:01:42;22.80;99.90
5476;DHT22;2760;50.000;9.194;2023-08-30T10:04:10;22.60;99.90
5476;DHT22;2760;50.000;9.194;2023-08-30T10:06:39;22.90;99.90
5476;DHT22;2760;50.000;9.194;2023-08-30T10:09:07;22.90;99.90
5476;DHT22;2760;50.000;9.194;2023-08-30T10:11:36;22.90;99.90
5476;DHT22;2760;50.000;9.194;2023-08-30T10:14:05;22.90;99.90
5476;DHT22;2760;50.000;9.194;2023-08-30T10:16:42;23.10;99.90
5476;DHT22;2760;50.000;9.194;2023-08-30T10:19:15;22.80;99.90
5476;DHT22;2760;50.000;9.194;2023-08-30T10:21:44;22.70;99.90
5476;DHT22;2760;50.000;9.194;2023-08-30T10:24:14;21.90;99.90
5476;DHT22;2760;50.000;9.194;2023-08-30T10:26:43;21.70;99.90
5476;DHT22;2760;50.000;9.194;2023-08-30T10:29:12;22.00;99.90
5476;DHT22;2760;50.000;9.194;2023-08-30T10:31:40;21.50;99.90
5476;DHT22;2760;50.000;9.194;2023-08-30T10:34:17;21.20;99.90
5476;DHT22;2760;50.000;9.194;2023-08-30T10:36:45;21.40;99.90
5476;DHT22;2760;50.000;9.194;2023-08-30T10:39:32;20.30;99.90
5476;DHT22;2760;50.000;9.194;2023-08-30T10:42:00;22.20;99.90
5476;DHT22;2760;50.000;9.194;2023-08-30T10:44:28;22.50;99.90
5476;DHT22;2760;50.000;9.194;2023-08-30T10:46:55;23.00;99.90
5476;DHT22;2760;50.000;9.194;2023-08-30T10:49:24;23.50;99.90
5476;DHT22;2760;50.000;9.194;2023-08-30T10:51:55;23.60;99.90
5476;DHT22;2760;50.000;9.194;2023-08-30T10:54:37;23.90;99.90
5476;DHT22;2760;50.000;9.194;2023-08-30T10:57:08;23.90;99.90
5476;DHT22;2760;50.000;9.194;2023-08-30T10:59:40;23.50;99.90
5476;DHT22;2760;50.000;9.194;2023-08-30T11:02:07;23.90;99.90
5476;DHT22;2760;50.000;9.194;2023-08-30T11:04:39;23.70;99.90
5476;DHT22;2760;50.000;9.194;2023-08-30T11:07:08;23.90;99.90
5476;DHT22;2760;50.000;9.194;2023-08-30T11:09:37;24.10;99.30
5476;DHT22;2760;50.000;9.194;2023-08-30T11:12:07;24.80;97.70
5476;DHT22;2760;50.000;9.194;2023-08-30T11:14:35;25.10;97.30
5476;DHT22;2760;50.000;9.194;2023-08-30T11:17:09;24.90;98.50
5476;DHT22;2760;50.000;9.194;2023-08-30T11:19:38;24.80;97.50
5476;DHT22;2760;50.000;9.194;2023-08-30T11:22:05;24.80;97.20
5476;DHT22;2760;50.000;9.194;2023-08-30T11:24:34;25.20;96.80
5476;DHT22;2760;50.000;9.194;2023-08-30T11:27:01;25.00;96.10
5476;DHT22;2760;50.000;9.194;2023-08-30T11:29:28;24.70;96.30
5476;DHT22;2760;50.000;9.194;2023-08-30T11:31:58;24.80;96.80
5476;DHT22;2760;50.000;9.194;2023-08-30T11:34:29;24.80;96.50
5476;DHT22;2760;50.000;9.194;2023-08-30T11:36:58;25.50;94.90
5476;DHT22;2760;50.000;9.194;2023-08-30T11:39:28;25.70;94.20
5476;DHT22;2760;50.000;9.194;2023-08-30T11:41:58;25.80;94.50
5476;DHT22;2760;50.000;9.194;2023-08-30T11:44:34;25.90;94.00
5476;DHT22;2760;50.000;9.194;2023-08-30T11:47:02;26.10;94.50
5476;DHT22;2760;50.000;9.194;2023-08-30T11:49:30;26.30;93.90
5476;DHT22;2760;50.000;9.194;2023-08-30T11:52:04;25.60;93.30
5476;DHT22;2760;50.000;9.194;2023-08-30T11:54:31;26.10;93.20
5476;DHT22;2760;50.000;9.194;2023-08-30T11:56:59;26.50;93.20
5476;DHT22;2760;50.000;9.194;2023-08-30T11:59:29;26.80;91.70
5476;DHT22;2760;50.000;9.194;2023-08-30T12:02:03;24.80;90.50
5476;DHT22;2760;50.000;9.194;2023-08-30T12:04:32;26.30;92.40
5476;DHT22;2760;50.000;9.194;2023-08-30T12:07:09;27.40;93.20
5476;DHT22;2760;50.000;9.194;2023-08-30T12:09:37;26.40;92.10
5476;DHT22;2760;50.000;9.194;2023-08-30T12:12:10;28.70;93.10
5476;DHT22;2760;50.000;9.194;2023-08-30T12:14:37;26.70;93.50
5476;DHT22;2760;50.000;9.194;2023-08-30T12:17:05;26.60;92.80
5476;DHT22;2760;50.000;9.194;2023-08-30T12:19:38;26.00;92.20
5476;DHT22;2760;50.000;9.194;2023-08-30T12:22:09;25.90;92.80
5476;DHT22;2760;50.000;9.194;2023-08-30T12:24:44;26.00;94.80
5476;DHT22;2760;50.000;9.194;2023-08-30T12:27:15;26.30;94.00
5476;DHT22;2760;50.000;9.194;2023-08-30T12:29:44;26.40;94.00
5476;DHT22;2760;50.000;9.194;2023-08-30T12:32:13;24.60;92.00
5476;DHT22;2760;50.000;9.194;2023-08-30T12:34:42;26.60;93.60
5476;DHT22;2760;50.000;9.194;2023-08-30T12:37:12;26.60;92.90
5476;DHT22;2760;50.000;9.194;2023-08-30T12:39:39;26.40;93.00
5476;DHT22;2760;50.000;9.194;2023-08-30T12:42:06;26.30;93.10
5476;DHT22;2760;50.000;9.194;2023-08-30T12:44:34;26.40;93.80
5476;DHT22;2760;50.000;9.194;2023-08-30T12:47:01;26.40;92.30
5476;DHT22;2760;50.000;9.194;2023-08-30T12:49:29;26.70;91.80
5476;DHT22;2760;50.000;9.194;2023-08-30T12:51:57;26.10;92.20
5476;DHT22;2760;50.000;9.194;2023-08-30T12:54:26;25.90;92.70
5476;DHT22;2760;50.000;9.194;2023-08-30T12:56:54;25.30;93.00
5476;DHT22;2760;50.000;9.194;2023-08-30T12:59:21;25.40;92.80
5476;DHT22;2760;50.000;9.194;2023-08-30T13:01:49;25.30;93.30
5476;DHT22;2760;50.000;9.194;2023-08-30T13:04:16;25.20;93.30
5476;DHT22;2760;50.000;9.194;2023-08-30T13:06:44;25.10;93.60
5476;DHT22;2760;50.000;9.194;2023-08-30T13:09:11;25.20;93.30
5476;DHT22;2760;50.000;9.194;2023-08-30T13:11:40;25.20;93.60
5476;DHT22;2760;50.000;9.194;2023-08-30T13:14:08;24.70;94.30
5476;DHT22;2760;50.000;9.194;2023-08-30T13:16:35;24.60;93.60
5476;DHT22;2760;50.000;9.194;2023-08-30T13:19:02;24.40;93.50
5476;DHT22;2760;50.000;9.194;2023-08-30T13:21:30;24.20;93.80
5476;DHT22;2760;50.000;9.194;2023-08-30T13:23:57;24.00;94.60
5476;DHT22;2760;50.000;9.194;2023-08-30T13:26:24;24.00;94.80
5476;DHT22;2760;50.000;9.194;2023-08-30T13:28:52;24.00;95.00
5476;DHT22;2760;50.000;9.194;2023-08-30T13:31:19;23.80;95.10
5476;DHT22;2760;50.000;9.194;2023-08-30T13:33:46;23.40;95.20
5476;DHT22;2760;50.000;9.194;2023-08-30T13:36:13;23.70;95.50
5476;DHT22;2760;50.000;9.194;2023-08-30T13:38:41;23.80;95.70
5476;DHT22;2760;50.000;9.194;2023-08-30T13:41:08;23.90;95.80
5476;DHT22;2760;50.000;9.194;2023-08-30T13:43:40;24.10;95.60
5476;DHT22;2760;50.000;9.194;2023-08-30T13:46:10;23.80;95.80
5476;DHT22;2760;50.000;9.194;2023-08-30T13:48:39;24.20;95.40
5476;DHT22;2760;50.000;9.194;2023-08-30T13:51:07;24.30;95.20
5476;DHT22;2760;50.000;9.194;2023-08-30T13:53:34;24.70;95.00
5476;DHT22;2760;50.000;9.194;2023-08-30T13:56:02;24.70;94.40
5476;DHT22;2760;50.000;9.194;2023-08-30T13:58:29;24.60;94.30
5476;DHT22;2760;50.000;9.194;2023-08-30T14:01:00;24.70;94.10
5476;DHT22;2760;50.000;9.194;2023-08-30T14:03:30;24.60;93.90
5476;DHT22;2760;50.000;9.194;2023-08-30T14:05:57;25.00;94.00
5476;DHT22;2760;50.000;9.194;2023-08-30T14:08:25;24.80;93.90
5476;DHT22;2760;50.000;9.194;2023-08-30T14:10:52;24.30;94.20
5476;DHT22;2760;50.000;9.194;2023-08-30T14:13:21;24.20;94.80
5476;DHT22;2760;50.000;9.194;2023-08-30T14:15:49;24.70;94.10
5476;DHT22;2760;50.000;9.194;2023-08-30T14:18:17;25.00;94.30
5476;DHT22;2760;50.000;9.194;2023-08-30T14:20:46;25.00;93.90
5476;DHT22;2760;50.000;9.194;2023-08-30T14:23:14;25.10;94.00
5476;DHT22;2760;50.000;9.194;2023-08-30T14:25:41;25.20;93.40
5476;DHT22;2760;50.000;9.194;2023-08-30T14:28:08;24.80;94.40
5476;DHT22;2760;50.000;9.194;2023-08-30T14:30:35;23.50;94.30
5476;DHT22;2760;50.000;9.194;2023-08-30T14:33:03;24.40;94.80
5476;DHT22;2760;50.000;9.194;2023-08-30T14:35:32;24.30;94.50
5476;DHT22;2760;50.000;9.194;2023-08-30T14:38:01;24.40;94.40
5476;DHT22;2760;50.000;9.194;2023-08-30T14:40:30;24.30;94.60
5476;DHT22;2760;50.000;9.194;2023-08-30T14:43:08;24.20;94.20
5476;DHT22;2760;50.000;9.194;2023-08-30T14:45:35;24.30;94.40
5476;DHT22;2760;50.000;9.194;2023-08-30T14:48:04;24.10;94.40
5476;DHT22;2760;50.000;9.194;2023-08-30T14:50:37;24.10;94.30
5476;DHT22;2760;50.000;9.194;2023-08-30T14:53:06;24.00;93.80
5476;DHT22;2760;50.000;9.194;2023-08-30T14:55:33;24.10;94.50
5476;DHT22;2760;50.000;9.194;2023-08-30T14:58:02;23.40;94.80
5476;DHT22;2760;50.000;9.194;2023-08-30T15:00:30;23.30;95.10
5476;DHT22;2760;50.000;9.194;2023-08-30T15:02:58;25.50;95.70
5476;DHT22;2760;50.000;9.194;2023-08-30T15:05:28;23.60;94.90
5476;DHT22;2760;50.000;9.194;2023-08-30T15:07:56;23.10;95.10
5476;DHT22;2760;50.000;9.194;2023-08-30T15:10:25;23.30;95.10
5476;DHT22;2760;50.000;9.194;2023-08-30T15:12:52;23.20;95.60
5476;DHT22;2760;50.000;9.194;2023-08-30T15:15:20;22.90;96.10
5476;DHT22;2760;50.000;9.194;2023-08-30T15:17:48;21.80;95.40
5476;DHT22;2760;50.000;9.194;2023-08-30T15:20:15;22.90;96.40
5476;DHT22;2760;50.000;9.194;2023-08-30T15:22:47;22.10;96.00
5476;DHT22;2760;50.000;9.194;2023-08-30T15:25:16;23.00;95.60
5476;DHT22;2760;50.000;9.194;2023-08-30T15:27:52;23.10;96.00
5476;DHT22;2760;50.000;9.194;2023-08-30T15:30:19;21.60;95.90
5476;DHT22;2760;50.000;9.194;2023-08-30T15:32:47;22.80;96.60
5476;DHT22;2760;50.000;9.194;2023-08-30T15:35:20;22.50;96.60
5476;DHT22;2760;50.000;9.194;2023-08-30T15:37:49;22.50;96.90
5476;DHT22;2760;50.000;9.194;2023-08-30T15:40:23;22.40;97.20
5476;DHT22;2760;50.000;9.194;2023-08-30T15:42:54;22.40;97.10
5476;DHT22;2760;50.000;9.194;2023-08-30T15:45:22;22.60;97.80
5476;DHT22;2760;50.000;9.194;2023-08-30T15:47:50;22.70;97.10
5476;DHT22;2760;50.000;9.194;2023-08-30T15:50:17;22.60;97.80
5476;DHT22;2760;50.000;9.194;2023-08-30T15:52:45;22.40;97.90
5476;DHT22;2760;50.000;9.194;2023-08-30T15:55:15;22.40;98.20
5476;DHT22;2760;50.000;9.194;2023-08-30T15:57:44;22.50;97.90
5476;DHT22;2760;50.000;9.194;2023-08-30T16:00:16;22.40;98.30
5476;DHT22;2760;50.000;9.194;2023-08-30T16:02:45;22.40;98.00
5476;DHT22;2760;50.000;9.194;2023-08-30T16:05:12;20.50;97.30
5476;DHT22;2760;50.000;9.194;2023-08-30T16:07:39;22.60;97.50
5476;DHT22;2760;50.000;9.194;2023-08-30T16:10:10;22.70;95.40
5476;DHT22;2760;50.000;9.194;2023-08-30T16:12:38;22.70;94.60